Time;durP1;ratioP1;P1;durP2;ratioP2;P2;SDS_P1;SDS_P2;PMS_P1;PMS_P2;Temp;Humidity;BMP_temperature;BMP_pressure;BME280_temperature;BME280_humidity;BME280_pressure;Samples;Min_cycle;Max_cycle;Signal;HPM_P1;HPM_P2
2021/04/19 00:02:03;;;;;;;9.13;6.18;;;18.10;67.80;;;;;;5058869;28;20028;-67
2021/04/19 00:04:30;;;;;;;8.18;6.03;;;18.20;69.30;;;;;;5059028;28;20021;-66
2021/04/19 00:06:58;;;;;;;6.50;4.93;;;18.40;68.80;;;;;;5054591;28;20060;-63
2021/04/19 00:09:25;;;;;;;10.18;5.88;;;18.50;66.30;;;;;;5056456;28;20155;-66
2021/04/19 00:11:52;;;;;;;8.45;5.45;;;18.70;67.20;;;;;;5053794;28;20052;-62
2021/04/19 00:14:20;;;;;;;8.65;5.45;;;18.80;65.90;;;;;;5060494;28;20025;-68
2021/04/19 00:16:47;;;;;;;7.25;4.80;;;18.90;65.90;;;;;;5058860;28;20021;-68
2021/04/19 00:19:14;;;;;;;8.43;5.47;;;19.10;64.40;;;;;;5059564;28;20024;-66
2021/04/19 00:21:42;;;;;;;8.30;5.72;;;19.30;64.50;;;;;;5057702;28;20082;-68
2021/04/19 00:24:09;;;;;;;9.77;8.50;;;19.50;65.10;;;;;;5056640;28;20324;-66
2021/04/19 00:26:36;;;;;;;8.70;4.90;;;19.70;64.00;;;;;;5058517;28;20036;-65
2021/04/19 00:29:04;;;;;;;11.40;6.95;;;19.70;61.40;;;;;;5057724;28;20544;-65
2021/04/19 00:31:33;;;;;;;10.05;5.15;;;19.90;58.70;;;;;;5060704;28;20024;-65
2021/04/19 00:34:02;;;;;;;8.65;5.05;;;19.90;59.10;;;;;;5062125;28;20380;-62
2021/04/19 00:36:30;;;;;;;8.43;5.15;;;20.00;58.00;;;;;;5061807;28;20033;-66
2021/04/19 00:38:57;;;;;;;7.28;4.90;;;20.10;57.60;;;;;;5043535;28;20696;-63
2021/04/19 00:41:25;;;;;;;8.32;4.90;;;20.30;57.50;;;;;;5061595;28;20017;-65
2021/04/19 00:43:52;;;;;;;8.63;4.45;;;20.20;56.50;;;;;;5059435;28;20021;-61
2021/04/19 00:46:20;;;;;;;7.43;4.38;;;20.30;57.40;;;;;;5058439;28;20473;-66
2021/04/19 00:48:47;;;;;;;4.47;3.88;;;20.30;57.70;;;;;;5060272;28;20062;-65
2021/04/19 00:51:14;;;;;;;8.32;4.63;;;20.60;57.40;;;;;;5063040;28;20029;-65
2021/04/19 00:53:42;;;;;;;9.85;4.88;;;20.80;55.30;;;;;;5060483;28;20025;-64
2021/04/19 00:56:10;;;;;;;8.38;5.32;;;20.80;55.20;;;;;;5062973;28;20069;-64
2021/04/19 00:58:40;;;;;;;12.55;7.03;;;21.00;55.00;;;;;;5058069;28;20804;-64
2021/04/19 01:01:08;;;;;;;5.70;4.68;;;21.20;54.50;;;;;;5060265;28;20120;-64
2021/04/19 01:03:36;;;;;;;7.10;4.80;;;21.40;52.00;;;;;;5061293;28;20502;-66
2021/04/19 01:06:04;;;;;;;11.50;5.82;;;21.50;50.10;;;;;;5060033;28;20040;-65
2021/04/19 01:08:32;;;;;;;6.47;4.72;;;21.70;50.70;;;;;;5063195;28;20070;-65
2021/04/19 01:11:00;;;;;;;7.50;5.03;;;21.80;51.90;;;;;;5057201;28;20036;-67
2021/04/19 01:13:27;;;;;;;10.32;4.63;;;21.90;53.20;;;;;;5060900;28;20024;-66
2021/04/19 01:15:54;;;;;;;6.45;5.03;;;22.00;51.80;;;;;;5061053;28;20542;-65
2021/04/19 01:18:21;;;;;;;9.60;5.55;;;22.20;49.90;;;;;;5058359;28;20016;-64
2021/04/19 01:20:52;;;;;;;9.63;5.38;;;22.40;51.00;;;;;;5060125;28;20013;-63
2021/04/19 01:23:21;;;;;;;7.50;5.10;;;22.40;50.60;;;;;;5060259;28;20071;-65
2021/04/19 01:25:48;;;;;;;10.30;5.22;;;22.70;50.50;;;;;;5061739;28;20028;-65
2021/04/19 01:28:17;;;;;;;6.90;4.47;;;22.80;47.70;;;;;;5059259;28;20077;-65
2021/04/19 01:30:46;;;;;;;7.55;4.32;;;22.90;48.10;;;;;;5059420;28;20028;-66
2021/04/19 01:33:14;;;;;;;8.20;5.03;;;23.00;47.20;;;;;;5060362;28;20107;-66
2021/04/19 01:35:42;;;;;;;6.53;4.53;;;23.20;47.70;;;;;;5060341;28;20021;-66
2021/04/19 01:38:12;;;;;;;9.60;4.53;;;23.30;47.50;;;;;;5059343;28;20938;-66
2021/04/19 01:40:39;;;;;;;7.25;4.40;;;23.30;46.40;;;;;;5059458;28;20526;-69
2021/04/19 01:43:07;;;;;;;6.85;4.50;;;23.40;46.70;;;;;;5057018;28;20028;-68
2021/04/19 01:45:34;;;;;;;7.72;4.53;;;23.50;44.30;;;;;;5061427;28;20472;-68
2021/04/19 01:48:02;;;;;;;8.75;4.25;;;23.50;43.60;;;;;;5060927;28;20055;-68
2021/04/19 01:50:31;;;;;;;5.68;4.45;;;23.70;41.40;;;;;;5060905;28;20028;-66
2021/04/19 01:53:00;;;;;;;7.57;4.07;;;23.70;44.60;;;;;;5056797;28;20483;-68
2021/04/19 01:55:30;;;;;;;6.40;4.30;;;23.90;44.80;;;;;;5052143;28;20067;-65
2021/04/19 01:58:01;;;;;;;;;;;24.10;45.50;;;;;;5056043;28;20040;-67
2021/04/19 02:00:30;;;;;;;7.13;5.22;;;24.10;44.70;;;;;;5059388;28;19916;-68
2021/04/19 02:03:27;;;;;;;12.77;7.20;;;24.10;42.90;;;;;;5060921;28;20753;-69
2021/04/19 02:06:02;;;;;;;11.45;5.85;;;24.10;42.50;;;;;;5063750;28;20032;-66
2021/04/19 02:08:39;;;;;;;7.20;5.65;;;24.40;44.50;;;;;;5064521;28;20051;-67
2021/04/19 02:11:09;;;;;;;5.57;4.20;;;24.50;43.80;;;;;;5042058;28;20116;-67
2021/04/19 02:14:06;;;;;;;5.60;4.07;;;24.60;41.80;;;;;;5064763;28;20077;-69
2021/04/19 02:16:48;;;;;;;6.00;4.40;;;24.70;37.50;;;;;;5040858;28;20142;-68
2021/04/19 02:19:39;;;;;;;9.93;5.57;;;24.60;39.30;;;;;;5063274;28;20463;-70
2021/04/19 02:22:14;;;;;;;12.88;9.18;;;24.60;40.60;;;;;;5062713;28;20060;-69
2021/04/19 02:24:49;;;;;;;5.70;3.80;;;24.70;41.30;;;;;;5061481;28;20502;-69
2021/04/19 02:27:28;;;;;;;9.68;4.60;;;24.90;40.10;;;;;;5064267;28;20028;-70
2021/04/19 02:29:58;;;;;;;6.43;4.43;;;25.00;39.50;;;;;;5065042;28;20081;-69
2021/04/19 02:32:35;;;;;;;10.75;4.53;;;25.10;39.30;;;;;;5061307;28;20112;-68
2021/04/19 02:35:07;;;;;;;5.82;4.38;;;25.30;39.70;;;;;;5063623;28;20525;-68
2021/04/19 02:37:37;;;;;;;9.32;4.55;;;25.20;39.60;;;;;;5060089;28;20024;-66
2021/04/19 02:40:08;;;;;;;10.65;5.10;;;25.20;40.40;;;;;;5059887;28;20055;-68
2021/04/19 02:42:44;;;;;;;9.75;4.82;;;25.30;40.70;;;;;;5060273;28;20383;-68
2021/04/19 02:45:14;;;;;;;6.82;4.32;;;25.50;40.60;;;;;;5059128;28;20028;-68
2021/04/19 02:47:47;;;;;;;9.30;3.92;;;25.70;39.50;;;;;;5119132;22;20059;-66
2021/04/19 02:50:18;;;;;;;6.13;4.43;;;25.80;38.50;;;;;;5069738;28;20017;-69
2021/04/19 02:52:47;;;;;;;5.68;4.20;;;25.80;36.90;;;;;;5073219;28;20035;-71
2021/04/19 02:55:17;;;;;;;8.35;4.00;;;25.60;37.40;;;;;;5071886;28;20020;-70
2021/04/19 02:58:03;;;;;;;5.93;3.65;;;25.60;37.60;;;;;;5073707;28;20298;-68
2021/04/19 03:00:38;;;;;;;10.05;4.13;;;25.60;37.60;;;;;;5073383;28;20017;-70
2021/04/19 03:03:18;;;;;;;6.38;4.35;;;25.80;35.10;;;;;;5071673;28;20032;-66
2021/04/19 03:05:46;;;;;;;8.57;3.42;;;25.90;36.60;;;;;;5075512;28;20436;-70
2021/04/19 03:08:17;;;;;;;7.80;3.85;;;26.00;36.80;;;;;;5075726;28;20054;-68
2021/04/19 03:10:56;;;;;;;7.90;4.03;;;25.80;36.60;;;;;;5072053;28;20470;-70
2021/04/19 03:13:26;;;;;;;6.13;3.63;;;25.80;36.40;;;;;;5064864;28;20037;-68
2021/04/19 03:15:56;;;;;;;8.60;5.72;;;25.80;36.00;;;;;;5074157;28;20024;-69
2021/04/19 03:18:26;;;;;;;7.35;4.43;;;26.00;37.10;;;;;;5074191;28;20016;-66
2021/04/19 03:21:29;;;;;;;5.43;3.42;;;26.10;36.60;;;;;;5068979;28;20116;-66
2021/04/19 03:24:01;;;;;;;7.40;3.50;;;26.30;36.70;;;;;;5006820;28;20408;-68
2021/04/19 03:26:32;;;;;;;5.53;3.47;;;26.30;36.40;;;;;;5063618;28;20139;-68
2021/04/19 03:29:01;;;;;;;6.20;3.17;;;26.50;36.70;;;;;;5072538;28;20129;-69
2021/04/19 03:31:32;;;;;;;3.30;3.00;;;26.60;37.90;;;;;;5066509;28;20066;-66
2021/04/19 03:34:05;;;;;;;4.20;3.10;;;26.40;37.40;;;;;;5075329;28;20082;-68
2021/04/19 03:36:35;;;;;;;5.55;3.60;;;26.40;37.00;;;;;;5072204;28;20048;-68
2021/04/19 03:39:04;;;;;;;4.93;3.60;;;26.30;37.00;;;;;;5069776;28;20403;-69
2021/04/19 03:41:38;;;;;;;4.03;3.35;;;26.40;36.50;;;;;;5075766;28;20044;-70
2021/04/19 03:44:07;;;;;;;5.85;3.72;;;26.30;36.30;;;;;;5072791;28;20036;-69
2021/04/19 03:46:37;;;;;;;4.85;3.60;;;26.50;36.00;;;;;;5073080;28;20506;-66
2021/04/19 03:49:24;;;;;;;7.05;3.60;;;26.70;35.80;;;;;;5074997;28;20033;-70
2021/04/19 03:51:57;;;;;;;4.38;2.97;;;26.40;35.50;;;;;;5073684;28;20020;-66
2021/04/19 03:54:30;;;;;;;7.18;3.35;;;26.00;36.40;;;;;;5069801;28;20028;-70
2021/04/19 03:57:01;;;;;;;6.72;3.95;;;25.80;36.50;;;;;;5069883;28;20024;-69
2021/04/19 03:59:30;;;;;;;8.67;4.10;;;25.90;37.80;;;;;;5075023;28;20017;-66
2021/04/19 04:02:01;;;;;;;8.20;4.32;;;25.90;36.70;;;;;;5072923;28;20261;-69
2021/04/19 04:04:29;;;;;;;6.03;3.88;;;25.80;37.50;;;;;;5073438;28;20368;-66
2021/04/19 04:06:58;;;;;;;6.13;3.40;;;25.60;38.90;;;;;;5074036;28;20036;-69
2021/04/19 04:09:26;;;;;;;5.68;3.80;;;25.80;39.10;;;;;;5060093;28;20474;-68
2021/04/19 04:11:55;;;;;;;6.43;3.40;;;26.00;38.70;;;;;;5077906;28;20536;-68
2021/04/19 04:14:24;;;;;;;6.30;3.47;;;26.20;38.00;;;;;;5077258;28;20398;-69
2021/04/19 04:16:51;;;;;;;6.38;3.47;;;26.30;37.80;;;;;;5077449;28;20110;-69
2021/04/19 04:19:18;;;;;;;4.60;3.65;;;26.30;38.50;;;;;;5076528;28;20070;-70
2021/04/19 04:21:47;;;;;;;4.50;3.63;;;26.40;37.00;;;;;;5078092;28;20112;-70
2021/04/19 04:24:16;;;;;;;4.32;3.28;;;26.30;36.50;;;;;;5077353;28;20017;-71
2021/04/19 04:26:43;;;;;;;5.30;3.75;;;26.30;35.70;;;;;;5079225;28;20017;-70
2021/04/19 04:29:10;;;;;;;5.80;4.20;;;26.50;35.50;;;;;;5077522;28;20066;-67
2021/04/19 04:31:38;;;;;;;8.60;6.40;;;26.60;36.60;;;;;;5076258;28;20054;-68
2021/04/19 04:34:05;;;;;;;10.05;5.88;;;26.70;36.60;;;;;;5078140;28;20024;-67
2021/04/19 04:36:32;;;;;;;5.95;3.95;;;26.80;36.50;;;;;;5078000;28;20032;-69
2021/04/19 04:38:59;;;;;;;7.03;3.55;;;26.50;37.70;;;;;;5078322;28;20031;-67
2021/04/19 04:41:27;;;;;;;7.88;3.58;;;26.50;37.00;;;;;;5076586;28;20024;-67
2021/04/19 04:43:57;;;;;;;6.18;3.50;;;26.50;38.10;;;;;;5076536;28;20035;-69
2021/04/19 04:46:38;;;;;;;7.82;4.07;;;26.40;38.70;;;;;;5072174;28;20049;-68
2021/04/19 04:49:12;;;;;;;6.82;3.45;;;26.40;38.90;;;;;;5075288;28;20021;-68
2021/04/19 04:51:41;;;;;;;8.50;3.67;;;26.50;38.30;;;;;;5075460;28;20036;-68
2021/04/19 04:54:17;;;;;;;4.80;3.55;;;26.60;38.70;;;;;;5070919;28;20107;-68
2021/04/19 04:56:51;;;;;;;5.03;3.20;;;26.60;38.10;;;;;;5069770;28;20479;-70
2021/04/19 04:59:20;;;;;;;9.05;3.53;;;26.50;37.70;;;;;;5072481;28;20016;-67
2021/04/19 05:01:48;;;;;;;8.02;3.65;;;26.50;37.90;;;;;;5068912;28;20025;-67
2021/04/19 05:04:15;;;;;;;7.57;3.67;;;26.60;37.50;;;;;;5068283;28;20078;-68
2021/04/19 05:06:44;;;;;;;5.57;3.88;;;26.60;37.80;;;;;;5068560;28;20041;-66
2021/04/19 05:09:11;;;;;;;7.78;3.35;;;26.50;38.30;;;;;;5074990;28;20040;-66
2021/04/19 05:11:42;;;;;;;5.82;3.22;;;26.60;38.30;;;;;;5077291;28;20390;-73
2021/04/19 05:14:10;;;;;;;5.85;2.97;;;26.60;37.20;;;;;;5075927;28;20498;-74
2021/04/19 05:16:38;;;;;;;8.13;4.30;;;26.60;38.10;;;;;;5074347;28;20107;-67
2021/04/19 05:19:06;;;;;;;5.82;3.47;;;26.50;38.10;;;;;;5075475;28;20023;-73
2021/04/19 05:21:35;;;;;;;10.32;3.55;;;26.40;38.20;;;;;;5074608;28;20108;-68
2021/04/19 05:24:05;;;;;;;5.07;3.63;;;26.40;36.80;;;;;;5070561;28;20730;-71
2021/04/19 05:26:32;;;;;;;4.60;3.28;;;26.30;37.90;;;;;;5072166;28;20493;-71
2021/04/19 05:29:00;;;;;;;6.88;3.20;;;26.30;37.40;;;;;;5066999;28;20055;-70
2021/04/19 05:31:27;;;;;;;4.50;3.00;;;26.40;36.70;;;;;;5071201;28;20067;-72
2021/04/19 05:33:55;;;;;;;6.75;5.75;;;26.30;36.60;;;;;;5066306;28;20143;-69
2021/04/19 05:36:25;;;;;;;5.13;3.33;;;26.30;37.40;;;;;;4367970;28;10000767;-69
2021/04/19 05:38:54;;;;;;;5.93;4.63;;;26.30;36.30;;;;;;5067772;28;20447;-68
2021/04/19 05:41:22;;;;;;;6.45;2.90;;;26.40;36.50;;;;;;5071091;28;20020;-68
2021/04/19 05:43:50;;;;;;;5.43;2.65;;;26.40;36.00;;;;;;4713944;28;9999911;-70
2021/04/19 05:46:19;;;;;;;6.63;3.60;;;26.40;36.70;;;;;;5061491;28;20510;-69
2021/04/19 05:48:46;;;;;;;8.02;2.90;;;26.60;37.20;;;;;;5061653;28;20047;-66
2021/04/19 05:51:33;;;;;;;4.65;2.83;;;26.50;36.40;;;;;;5060869;28;20081;-69
2021/04/19 05:54:01;;;;;;;3.20;2.75;;;26.70;37.20;;;;;;5063753;28;20373;-71
2021/04/19 05:56:38;;;;;;;5.88;2.88;;;26.90;35.60;;;;;;5058249;28;20577;-71
2021/04/19 05:59:13;;;;;;;6.10;2.90;;;27.00;36.30;;;;;;5061203;28;20120;-68
2021/04/19 06:01:44;;;;;;;3.80;2.53;;;27.10;35.30;;;;;;5062494;28;20029;-69
2021/04/19 06:04:41;;;;;;;7.93;3.08;;;27.30;34.80;;;;;;5062758;28;20581;-67
2021/04/19 06:07:17;;;;;;;4.22;2.78;;;27.50;34.30;;;;;;5059917;28;20029;-71
2021/04/19 06:10:00;;;;;;;4.05;3.08;;;27.60;34.50;;;;;;5060913;28;20351;-73
2021/04/19 06:12:36;;;;;;;5.57;2.70;;;27.80;34.20;;;;;;5057187;28;20025;-73
2021/04/19 06:15:10;;;;;;;4.50;2.40;;;28.00;34.20;;;;;;5055715;28;20450;-71
2021/04/19 06:17:43;;;;;;;4.60;2.85;;;28.10;33.40;;;;;;5061541;28;20090;-69
2021/04/19 06:20:12;;;;;;;3.25;2.80;;;28.10;34.30;;;;;;5061644;28;20581;-71
2021/04/19 06:22:40;;;;;;;3.47;2.40;;;28.30;34.20;;;;;;5060773;28;20398;-70
2021/04/19 06:25:13;;;;;;;6.55;3.00;;;28.40;32.80;;;;;;5062114;28;20032;-68
2021/04/19 06:27:41;;;;;;;4.38;2.70;;;28.30;33.50;;;;;;5057951;28;20037;-68
2021/04/19 06:30:16;;;;;;;4.25;2.40;;;28.30;32.90;;;;;;5058573;28;20506;-67
2021/04/19 06:32:45;;;;;;;6.88;3.35;;;28.40;32.70;;;;;;5060222;28;20035;-66
2021/04/19 06:35:17;;;;;;;3.60;2.53;;;28.40;33.30;;;;;;5062125;28;20020;-72
2021/04/19 06:37:50;;;;;;;4.22;2.55;;;28.40;33.00;;;;;;5061974;28;20031;-69
2021/04/19 06:40:18;;;;;;;5.10;2.83;;;28.40;33.20;;;;;;5069138;28;20047;-71
2021/04/19 06:42:46;;;;;;;4.50;3.03;;;28.10;32.10;;;;;;5057802;28;20032;-73
2021/04/19 06:45:15;;;;;;;6.13;4.80;;;28.10;32.50;;;;;;5065881;28;20127;-70
2021/04/19 06:47:43;;;;;;;12.02;6.85;;;27.90;31.70;;;;;;5065731;28;20401;-64
2021/04/19 06:50:12;;;;;;;6.13;4.82;;;27.80;32.50;;;;;;5059402;28;20094;-67
2021/04/19 06:52:46;;;;;;;7.00;3.33;;;27.60;32.60;;;;;;5056300;28;20028;-70
2021/04/19 06:55:17;;;;;;;4.55;3.10;;;27.20;33.30;;;;;;5060298;28;20024;-67
2021/04/19 06:57:57;;;;;;;4.05;2.72;;;26.70;32.80;;;;;;5054048;28;20028;-69
2021/04/19 07:00:29;;;;;;;2.97;2.50;;;26.40;33.70;;;;;;5060609;28;20051;-66
2021/04/19 07:03:01;;;;;;;4.38;2.53;;;26.20;34.60;;;;;;5060154;28;20039;-67
2021/04/19 07:05:37;;;;;;;;;;;25.90;34.90;;;;;;5061291;28;20050;-64
2021/04/19 07:08:30;;;;;;;5.40;3.15;;;25.50;35.20;;;;;;5057455;28;20010;-67
2021/04/19 07:11:04;;;;;;;5.57;2.88;;;24.90;36.60;;;;;;5063305;28;20394;-68
2021/04/19 07:13:36;;;;;;;6.68;3.25;;;24.30;37.40;;;;;;5059402;28;20413;-67
2021/04/19 07:16:03;;;;;;;5.78;3.20;;;23.70;38.60;;;;;;5070617;28;20490;-68
2021/04/19 07:18:31;;;;;;;5.35;2.92;;;23.20;40.20;;;;;;5069337;28;20329;-64
2021/04/19 07:20:59;;;;;;;7.68;3.30;;;22.90;40.70;;;;;;5072242;28;20020;-68
2021/04/19 07:23:26;;;;;;;6.55;3.35;;;22.60;42.00;;;;;;5069735;28;20035;-68
2021/04/19 07:25:53;;;;;;;7.38;3.70;;;22.20;42.90;;;;;;5070401;28;20062;-66
2021/04/19 07:28:20;;;;;;;5.72;3.75;;;21.90;43.90;;;;;;5069000;28;20382;-67
2021/04/19 07:30:59;;;;;;;5.70;3.80;;;21.50;45.00;;;;;;5071360;28;20043;-67
2021/04/19 07:33:34;;;;;;;9.52;4.35;;;21.30;46.80;;;;;;5057231;28;20039;-68
2021/04/19 07:36:23;;;;;;;8.63;3.65;;;21.00;47.60;;;;;;5054526;28;20431;-68
2021/04/19 07:38:51;;;;;;;5.05;3.60;;;20.80;47.60;;;;;;5070712;28;20514;-68
2021/04/19 07:41:19;;;;;;;6.57;3.70;;;20.60;47.20;;;;;;5049037;28;20028;-69
2021/04/19 07:43:48;;;;;;;10.43;4.22;;;20.40;48.60;;;;;;5051906;28;20121;-68
2021/04/19 07:46:21;;;;;;;8.27;4.05;;;20.30;49.50;;;;;;5067642;28;20064;-68
2021/04/19 07:48:52;;;;;;;9.70;4.70;;;20.10;49.10;;;;;;5050929;28;20032;-68
2021/04/19 07:51:39;;;;;;;11.52;4.40;;;20.00;51.00;;;;;;5067546;28;20024;-69
2021/04/19 07:54:12;;;;;;;6.50;4.10;;;19.70;51.10;;;;;;5067532;28;20024;-64
2021/04/19 07:56:41;;;;;;;7.05;4.57;;;19.50;51.00;;;;;;5068217;28;20078;-69
2021/04/19 07:59:32;;;;;;;9.05;4.47;;;19.30;52.30;;;;;;5068946;28;20024;-68
2021/04/19 08:02:06;;;;;;;6.72;3.85;;;19.20;51.30;;;;;;5070454;28;20090;-71
2021/04/19 08:04:35;;;;;;;7.05;3.67;;;19.10;50.20;;;;;;5067683;28;20033;-70
2021/04/19 08:07:02;;;;;;;6.13;3.75;;;18.90;51.20;;;;;;5069899;28;20028;-69
2021/04/19 08:09:34;;;;;;;6.57;3.65;;;18.80;51.90;;;;;;5076134;28;20028;-69
2021/04/19 08:12:09;;;;;;;6.57;3.63;;;18.90;51.80;;;;;;5069218;28;20473;-66
2021/04/19 08:14:51;;;;;;;8.85;5.22;;;18.90;51.20;;;;;;5067358;28;20468;-74
2021/04/19 08:17:18;;;;;;;;;;;18.80;54.00;;;;;;5070222;28;20095;-63
2021/04/19 08:19:45;;;;;;;6.57;4.82;;;18.70;53.10;;;;;;5065257;28;20324;-65
2021/04/19 08:22:23;;;;;;;6.38;4.10;;;18.50;53.30;;;;;;5068878;28;20052;-64
2021/04/19 08:24:50;;;;;;;11.10;4.65;;;18.30;53.50;;;;;;5071080;28;20020;-67
2021/04/19 08:27:25;;;;;;;4.78;3.17;;;18.10;55.50;;;;;;5070228;28;20314;-61
2021/04/19 08:29:52;;;;;;;5.78;3.22;;;18.10;53.20;;;;;;5069598;28;20047;-60
2021/04/19 08:32:21;;;;;;;5.80;3.42;;;18.10;53.60;;;;;;5068846;28;20383;-68
2021/04/19 08:34:50;;;;;;;6.35;3.40;;;18.00;54.20;;;;;;5068380;28;20072;-68
2021/04/19 08:37:22;;;;;;;10.27;3.60;;;18.00;54.20;;;;;;5069821;28;20028;-71
2021/04/19 08:39:51;;;;;;;8.40;3.90;;;17.80;55.80;;;;;;5067705;28;20100;-69
2021/04/19 08:42:19;;;;;;;10.98;3.83;;;17.60;56.80;;;;;;5071070;28;20031;-65
2021/04/19 08:44:47;;;;;;;8.15;4.00;;;17.50;58.20;;;;;;5068166;28;20032;-61
2021/04/19 08:47:20;;;;;;;7.53;4.22;;;17.50;58.80;;;;;;5068811;28;20052;-67
2021/04/19 08:49:48;;;;;;;10.93;4.13;;;17.30;59.30;;;;;;5068149;28;20484;-70
2021/04/19 08:52:16;;;;;;;7.90;3.75;;;17.30;60.40;;;;;;5067541;28;20024;-60
2021/04/19 08:54:46;;;;;;;12.23;4.25;;;17.20;61.40;;;;;;5068526;28;20028;-67
2021/04/19 08:57:13;;;;;;;6.13;3.95;;;17.20;62.00;;;;;;5067192;28;20024;-63
2021/04/19 08:59:45;;;;;;;7.38;4.05;;;17.20;63.00;;;;;;5043129;28;20035;-63
2021/04/19 09:02:14;;;;;;;12.07;4.50;;;17.10;63.90;;;;;;5065330;28;20506;-63
2021/04/19 09:05:01;;;;;;;9.40;4.75;;;17.10;64.60;;;;;;5063619;28;20033;-62
2021/04/19 09:07:32;;;;;;;8.00;4.28;;;17.00;65.60;;;;;;5064118;28;20031;-62
2021/04/19 09:10:00;;;;;;;11.07;4.15;;;16.90;66.80;;;;;;5060849;28;20035;-66
2021/04/19 09:12:29;;;;;;;9.73;5.10;;;16.90;67.60;;;;;;5058226;28;20545;-66
2021/04/19 09:15:12;;;;;;;9.80;5.30;;;16.70;68.20;;;;;;5054370;28;20178;-63
2021/04/19 09:17:41;;;;;;;6.28;4.18;;;16.50;69.40;;;;;;5053033;28;20025;-61
2021/04/19 09:20:13;;;;;;;6.07;4.00;;;16.30;71.10;;;;;;5058247;28;20021;-71
2021/04/19 09:22:41;;;;;;;6.25;3.60;;;16.30;71.50;;;;;;5056580;28;20403;-61
2021/04/19 09:25:15;;;;;;;11.52;5.10;;;16.20;72.40;;;;;;5056834;28;20080;-62
2021/04/19 09:27:56;;;;;;;8.15;4.22;;;16.20;73.60;;;;;;5056857;28;20797;-61
2021/04/19 09:30:26;;;;;;;12.18;4.90;;;16.20;73.90;;;;;;5056277;28;20580;-70
2021/04/19 09:33:05;;;;;;;7.85;4.68;;;16.20;74.80;;;;;;5056870;28;20577;-68
2021/04/19 09:35:46;;;;;;;8.20;4.60;;;16.10;75.50;;;;;;5052463;28;20416;-59
2021/04/19 09:38:18;;;;;;;10.98;4.20;;;16.00;76.30;;;;;;5052486;28;20450;-71
2021/04/19 09:40:52;;;;;;;6.78;3.72;;;15.90;77.40;;;;;;5057966;28;20024;-62
2021/04/19 09:43:35;;;;;;;10.25;4.97;;;15.80;77.70;;;;;;5054799;28;20028;-60
2021/04/19 09:46:16;;;;;;;6.32;4.32;;;15.80;78.20;;;;;;5056510;28;20036;-63
2021/04/19 09:49:02;;;;;;;8.60;4.75;;;15.80;79.00;;;;;;5051958;28;20029;-62
2021/04/19 09:51:37;;;;;;;6.95;4.78;;;15.80;79.90;;;;;;5049347;28;20078;-69
2021/04/19 09:54:06;;;;;;;9.20;4.82;;;15.90;79.80;;;;;;5050226;28;20398;-69
2021/04/19 09:56:42;;;;;;;9.23;4.65;;;15.90;80.10;;;;;;5045167;28;20037;-69
2021/04/19 09:59:15;;;;;;;10.63;5.80;;;15.80;80.90;;;;;;5045260;28;20032;-61
2021/04/19 10:01:45;;;;;;;;;;;15.70;81.00;;;;;;5047120;28;20064;-69
2021/04/19 10:04:14;;;;;;;9.45;5.80;;;15.70;81.50;;;;;;5043278;28;20249;-71
2021/04/19 10:06:46;;;;;;;9.48;5.50;;;15.60;82.00;;;;;;5049863;28;20024;-73
2021/04/19 10:09:15;;;;;;;7.88;5.20;;;15.60;82.30;;;;;;5045544;28;20365;-64
2021/04/19 10:11:48;;;;;;;11.15;5.20;;;15.60;82.00;;;;;;5046608;28;20039;-73
2021/04/19 10:14:18;;;;;;;9.82;5.22;;;15.50;82.30;;;;;;5045400;28;20075;-65
2021/04/19 10:16:49;;;;;;;12.57;5.40;;;15.40;82.60;;;;;;5041559;28;20808;-72
2021/04/19 10:19:30;;;;;;;16.15;6.03;;;15.30;82.90;;;;;;5050879;28;20091;-72
2021/04/19 10:22:06;;;;;;;9.77;5.55;;;15.30;83.00;;;;;;5052115;28;20073;-73
2021/04/19 10:24:36;;;;;;;19.17;7.05;;;15.20;83.40;;;;;;5048144;28;20035;-64
2021/04/19 10:27:04;;;;;;;16.92;6.82;;;15.10;84.10;;;;;;5053672;28;20495;-71
2021/04/19 10:29:33;;;;;;;24.05;7.40;;;15.10;84.20;;;;;;5055759;28;20052;-71
2021/04/19 10:32:03;;;;;;;13.10;6.72;;;15.20;84.80;;;;;;5049252;28;20021;-72
2021/04/19 10:34:32;;;;;;;15.45;6.78;;;15.20;84.90;;;;;;5043926;28;20060;-72
2021/04/19 10:37:02;;;;;;;17.38;6.32;;;15.20;84.90;;;;;;5044570;28;20036;-64
2021/04/19 10:39:33;;;;;;;11.48;6.75;;;15.20;85.10;;;;;;5044097;28;20356;-63
2021/04/19 10:42:04;;;;;;;13.13;6.95;;;15.20;85.10;;;;;;5024710;28;20388;-62
2021/04/19 10:44:41;;;;;;;8.23;6.50;;;15.20;85.30;;;;;;5043538;28;20030;-70
2021/04/19 10:47:11;;;;;;;12.90;6.93;;;15.30;85.40;;;;;;5052462;28;20048;-72
2021/04/19 10:49:39;;;;;;;11.77;6.60;;;15.10;86.00;;;;;;5052002;28;20024;-63
2021/04/19 10:52:10;;;;;;;10.95;7.80;;;15.10;86.90;;;;;;5046029;28;20041;-70
2021/04/19 10:54:43;;;;;;;12.32;6.82;;;15.10;87.20;;;;;;5048935;28;20028;-62
2021/04/19 10:57:21;;;;;;;10.55;6.70;;;15.00;87.40;;;;;;5036345;28;20051;-64
2021/04/19 10:59:49;;;;;;;9.27;6.50;;;14.90;88.40;;;;;;4691524;28;10000322;-65
2021/04/19 11:02:23;;;;;;;12.30;6.80;;;14.80;88.00;;;;;;5050469;28;20413;-76
2021/04/19 11:04:51;;;;;;;13.35;6.82;;;14.90;88.00;;;;;;5050003;28;20033;-77
2021/04/19 11:07:32;;;;;;;31.55;10.00;;;14.90;87.20;;;;;;5049459;28;20029;-72
2021/04/19 11:10:24;;;;;;;20.42;7.85;;;15.00;86.70;;;;;;5043459;28;20408;-65
2021/04/19 11:13:09;;;;;;;19.33;8.98;;;14.90;85.90;;;;;;5046734;28;20029;-75
2021/04/19 11:15:47;;;;;;;18.83;8.50;;;14.80;85.60;;;;;;5048400;28;20020;-75
2021/04/19 11:18:22;;;;;;;22.45;13.50;;;14.80;85.80;;;;;;5042505;28;20285;-74
2021/04/19 11:20:51;;;;;;;19.80;9.20;;;14.70;85.60;;;;;;5047338;28;20483;-74
2021/04/19 11:23:25;;;;;;;16.13;8.98;;;14.60;85.50;;;;;;5048192;28;20877;-64
2021/04/19 11:25:54;;;;;;;16.73;8.85;;;14.50;86.60;;;;;;5049151;28;20055;-64
2021/04/19 11:28:30;;;;;;;16.45;9.43;;;14.40;86.20;;;;;;5042027;28;20033;-72
2021/04/19 11:31:11;;;;;;;19.77;9.75;;;14.40;86.20;;;;;;5050546;28;20469;-64
2021/04/19 11:33:38;;;;;;;14.38;9.80;;;14.40;86.40;;;;;;5054764;28;20115;-72
2021/04/19 11:36:07;;;;;;;15.48;10.75;;;14.50;86.40;;;;;;5053247;28;20798;-75
2021/04/19 11:38:39;;;;;;;16.98;13.45;;;14.40;86.70;;;;;;5049146;28;20025;-64
2021/04/19 11:41:09;;;;;;;23.58;18.95;;;14.30;87.20;;;;;;5042976;28;20164;-71
2021/04/19 11:43:49;;;;;;;24.10;17.17;;;14.20;88.30;;;;;;5044201;28;20032;-72
2021/04/19 11:46:19;;;;;;;24.98;16.77;;;14.10;89.30;;;;;;5052358;28;20051;-74
2021/04/19 11:48:49;;;;;;;25.30;21.40;;;14.10;89.70;;;;;;5059887;28;20368;-65
2021/04/19 11:51:19;;;;;;;24.45;21.85;;;14.10;90.00;;;;;;5050729;28;20035;-73
2021/04/19 11:53:47;;;;;;;23.15;20.70;;;14.00;90.10;;;;;;5052476;28;20021;-65
2021/04/19 11:56:16;;;;;;;22.02;17.38;;;13.90;90.10;;;;;;5050278;28;20047;-64
2021/04/19 11:58:46;;;;;;;24.02;20.08;;;13.90;90.60;;;;;;5055402;28;20065;-64
2021/04/19 12:01:15;;;;;;;26.42;21.27;;;13.80;90.50;;;;;;5051348;28;20028;-74
2021/04/19 12:03:43;;;;;;;24.08;20.85;;;13.90;90.50;;;;;;5057536;28;20487;-72
2021/04/19 12:06:12;;;;;;;28.45;23.85;;;13.80;90.50;;;;;;5054770;28;20040;-75
2021/04/19 12:08:42;;;;;;;26.50;22.42;;;13.60;90.70;;;;;;5057000;28;20028;-65
2021/04/19 12:11:16;;;;;;;27.20;20.83;;;13.60;90.80;;;;;;5052919;28;20131;-65
2021/04/19 12:13:44;;;;;;;29.40;21.10;;;13.50;90.80;;;;;;5057921;28;20029;-66
2021/04/19 12:16:12;;;;;;;33.00;23.85;;;13.40;91.00;;;;;;5050697;28;20521;-64
2021/04/19 12:18:40;;;;;;;26.58;19.50;;;13.40;91.20;;;;;;5055158;28;20511;-74
2021/04/19 12:21:08;;;;;;;21.70;15.98;;;13.50;90.70;;;;;;5049119;28;20142;-65
2021/04/19 12:23:35;;;;;;;23.38;14.05;;;13.50;90.60;;;;;;5048836;28;20150;-74
2021/04/19 12:26:04;;;;;;;18.25;12.45;;;13.50;90.50;;;;;;5059267;28;20021;-65
2021/04/19 12:28:31;;;;;;;22.08;11.88;;;13.50;90.20;;;;;;5062221;28;20435;-66
2021/04/19 12:31:00;;;;;;;19.98;11.38;;;13.50;89.80;;;;;;5033770;28;20033;-63
2021/04/19 12:33:28;;;;;;;15.77;10.48;;;13.40;89.80;;;;;;5051157;28;20414;-73
2021/04/19 12:35:55;;;;;;;21.00;11.32;;;13.30;90.00;;;;;;5054290;28;20380;-64
2021/04/19 12:38:22;;;;;;;23.77;10.85;;;13.30;90.00;;;;;;5053259;28;20063;-73
2021/04/19 12:40:50;;;;;;;17.73;12.25;;;13.20;89.40;;;;;;5054264;28;20032;-74
2021/04/19 12:43:17;;;;;;;21.27;12.70;;;13.10;90.20;;;;;;5055923;28;20107;-65
2021/04/19 12:45:45;;;;;;;21.42;11.30;;;12.90;90.50;;;;;;5059974;28;20032;-74
2021/04/19 12:48:13;;;;;;;20.45;12.65;;;12.90;90.40;;;;;;5058898;28;20104;-66
2021/04/19 12:50:41;;;;;;;18.55;11.77;;;12.80;90.60;;;;;;5048457;28;20028;-64
2021/04/19 12:53:10;;;;;;;18.55;11.35;;;12.70;90.70;;;;;;5057634;28;20031;-74
2021/04/19 12:55:42;;;;;;;20.90;12.05;;;12.80;90.50;;;;;;5057569;28;20426;-65
2021/04/19 12:58:10;;;;;;;22.97;11.67;;;12.70;90.70;;;;;;5056497;28;20522;-64
2021/04/19 13:00:37;;;;;;;18.75;11.27;;;12.70;90.60;;;;;;5057457;28;20032;-75
2021/04/19 13:03:10;;;;;;;15.93;10.27;;;12.80;90.30;;;;;;5056622;28;20107;-66
2021/04/19 13:05:37;;;;;;;;;;;12.70;90.30;;;;;;5061218;28;20051;-64